createdAt,value
2023-03-30T00:01:22.948Z,17.53
2023-03-30T00:03:55.400Z,17.63
2023-03-30T00:06:24.445Z,18.47
2023-03-30T00:08:57.329Z,17.97
2023-03-30T00:11:33.963Z,18.13
2023-03-30T00:14:02.612Z,17.40
2023-03-30T00:16:31.217Z,17.37
2023-03-30T00:19:00.995Z,18.03
2023-03-30T00:21:32.016Z,17.47
2023-03-30T00:24:00.267Z,18.20
2023-03-30T00:26:28.542Z,16.97
2023-03-30T00:28:56.995Z,18.23
2023-03-30T00:31:25.557Z,18.40
2023-03-30T00:33:53.856Z,17.53
2023-03-30T00:36:23.614Z,17.73
2023-03-30T00:38:51.908Z,17.63
2023-03-30T00:41:23.187Z,17.07
2023-03-30T00:44:00.869Z,17.00
2023-03-30T00:46:29.646Z,18.60
2023-03-30T00:49:00.607Z,18.67
2023-03-30T00:51:30.552Z,16.67
2023-03-30T00:54:05.797Z,18.00
2023-03-30T00:56:34.717Z,16.87
2023-03-30T00:59:04.161Z,16.17
2023-03-30T01:01:39.137Z,16.67
2023-03-30T01:04:09.989Z,16.83
2023-03-30T01:06:43.464Z,16.93
2023-03-30T01:09:12.167Z,16.03
2023-03-30T01:11:40.994Z,15.93
2023-03-30T01:14:12.760Z,16.80
2023-03-30T01:16:49.171Z,15.87
2023-03-30T01:20:12.634Z,16.03
2023-03-30T01:23:14.526Z,15.83
2023-03-30T01:26:38.080Z,15.63
2023-03-30T01:29:16.731Z,15.80
2023-03-30T01:32:20.652Z,18.17
2023-03-30T01:35:39.574Z,17.07
2023-03-30T01:38:42.277Z,14.30
2023-03-30T01:41:16.590Z,14.50
2023-03-30T01:43:54.664Z,15.00
2023-03-30T01:46:31.204Z,14.77
2023-03-30T01:49:12.518Z,14.67
2023-03-30T01:51:45.378Z,14.37
2023-03-30T01:54:18.709Z,13.47
2023-03-30T01:56:53.760Z,15.10
2023-03-30T01:59:27.807Z,14.83
2023-03-30T02:02:02.698Z,14.73
2023-03-30T02:04:36.191Z,15.87
2023-03-30T02:07:12.564Z,15.03
2023-03-30T02:09:43.408Z,14.27
2023-03-30T02:12:14.496Z,14.27
2023-03-30T02:14:44.096Z,14.57
2023-03-30T02:17:17.190Z,15.07
2023-03-30T02:19:47.405Z,15.47
2023-03-30T02:22:17.696Z,14.70
2023-03-30T02:24:49.200Z,14.67
2023-03-30T02:27:19.345Z,15.47
2023-03-30T02:29:47.795Z,16.00
2023-03-30T02:32:20.348Z,15.17
2023-03-30T02:35:23.997Z,15.47
2023-03-30T02:38:38.882Z,14.93
2023-03-30T02:41:26.338Z,14.13
2023-03-30T02:44:08.072Z,14.40
2023-03-30T02:47:01.636Z,15.20
2023-03-30T02:49:50.698Z,15.83
2023-03-30T02:52:34.092Z,15.33
2023-03-30T02:55:14.982Z,14.40
2023-03-30T02:57:56.818Z,15.67
2023-03-30T03:00:35.317Z,15.73
2023-03-30T03:03:12.094Z,15.43
2023-03-30T03:05:44.779Z,15.87
2023-03-30T03:08:16.577Z,15.90
2023-03-30T03:10:44.882Z,17.17
2023-03-30T03:13:16.464Z,15.83
2023-03-30T03:15:46.384Z,15.23
2023-03-30T03:18:15.098Z,16.80
2023-03-30T03:20:43.590Z,14.97
2023-03-30T03:23:11.832Z,15.00
2023-03-30T03:25:40.251Z,15.47
2023-03-30T03:28:08.852Z,18.37
2023-03-30T03:30:37.639Z,16.60
2023-03-30T03:33:10.071Z,16.70
2023-03-30T03:35:39.628Z,16.17
2023-03-30T03:38:09.021Z,15.93
2023-03-30T03:40:37.398Z,15.83
2023-03-30T03:43:05.776Z,13.70
2023-03-30T03:45:34.357Z,14.77
2023-03-30T03:48:02.653Z,14.60
2023-03-30T03:50:38.226Z,11.50
2023-03-30T03:53:06.523Z,9.87
2023-03-30T03:55:35.721Z,10.07
2023-03-30T03:58:07.386Z,10.50
2023-03-30T04:00:42.132Z,8.77
2023-03-30T04:03:12.273Z,12.30
2023-03-30T04:05:42.775Z,12.13
2023-03-30T04:08:14.937Z,11.43
2023-03-30T04:10:43.514Z,10.50
2023-03-30T04:13:11.965Z,10.87
2023-03-30T04:15:40.191Z,13.70
2023-03-30T04:18:15.555Z,11.73
2023-03-30T04:20:48.131Z,11.90
2023-03-30T04:23:21.823Z,10.40
2023-03-30T04:25:51.912Z,12.77
2023-03-30T04:28:24.722Z,12.73
2023-03-30T04:30:53.007Z,14.40
2023-03-30T04:33:21.243Z,14.43
2023-03-30T04:35:50.910Z,14.00
2023-03-30T04:38:22.393Z,14.13
2023-03-30T04:40:51.060Z,14.73
2023-03-30T04:43:21.572Z,14.27
2023-03-30T04:45:51.363Z,17.40
2023-03-30T04:48:20.701Z,16.57
2023-03-30T04:50:52.019Z,13.53
2023-03-30T04:53:23.035Z,15.43
2023-03-30T04:55:52.792Z,13.13
2023-03-30T04:58:23.989Z,14.70
2023-03-30T05:00:52.276Z,12.87
2023-03-30T05:03:23.269Z,12.90
2023-03-30T05:05:53.283Z,14.37
2023-03-30T05:08:21.533Z,13.63
2023-03-30T05:10:49.921Z,13.30
2023-03-30T05:13:18.320Z,14.10
2023-03-30T05:15:46.617Z,13.90
2023-03-30T05:18:14.964Z,13.80
2023-03-30T05:20:43.335Z,13.97
2023-03-30T05:23:12.941Z,13.07
2023-03-30T05:25:45.295Z,15.23
2023-03-30T05:28:13.705Z,14.53
2023-03-30T05:30:41.995Z,20.50
2023-03-30T05:33:12.992Z,15.47
2023-03-30T05:35:41.341Z,15.70
2023-03-30T05:38:12.695Z,17.47
2023-03-30T05:40:42.405Z,17.13
2023-03-30T05:43:10.786Z,14.43
2023-03-30T05:45:39.084Z,14.57
2023-03-30T05:48:08.195Z,14.73
2023-03-30T05:50:36.540Z,16.27
2023-03-30T05:53:04.845Z,15.47
2023-03-30T05:55:33.239Z,15.67
2023-03-30T05:58:03.991Z,16.00
2023-03-30T06:00:34.667Z,15.83
2023-03-30T06:03:03.093Z,16.20
2023-03-30T06:05:33.661Z,17.70
2023-03-30T06:08:01.937Z,15.53
2023-03-30T06:10:30.282Z,15.93
2023-03-30T06:12:58.655Z,14.73
2023-03-30T06:15:28.509Z,14.77
2023-03-30T06:17:59.281Z,15.97
2023-03-30T06:20:27.783Z,32.70
2023-03-30T06:22:56.150Z,25.83
2023-03-30T06:25:24.616Z,22.40
2023-03-30T06:27:53.129Z,20.27
2023-03-30T06:30:21.586Z,16.13
2023-03-30T06:32:51.280Z,17.07
2023-03-30T06:35:21.235Z,14.93
2023-03-30T06:37:52.183Z,16.77
2023-03-30T06:40:20.901Z,15.53
2023-03-30T06:42:49.268Z,17.67
2023-03-30T06:45:17.816Z,18.03
2023-03-30T06:47:46.250Z,15.10
2023-03-30T06:50:16.186Z,17.27
2023-03-30T06:52:44.468Z,17.93
2023-03-30T06:55:13.066Z,15.13
2023-03-30T06:57:41.600Z,11.97
2023-03-30T07:00:14.170Z,13.23
2023-03-30T07:02:43.301Z,8.87
2023-03-30T07:05:13.171Z,6.77
2023-03-30T07:07:43.201Z,10.33
2023-03-30T07:10:12.756Z,10.80
2023-03-30T07:12:42.743Z,11.00
2023-03-30T07:15:12.400Z,11.33
2023-03-30T07:17:41.132Z,11.37
2023-03-30T07:20:14.900Z,7.40
2023-03-30T07:22:44.769Z,11.70
2023-03-30T07:25:14.483Z,8.53
2023-03-30T07:27:42.724Z,8.93
2023-03-30T07:30:21.147Z,8.53
2023-03-30T07:32:50.498Z,8.17
2023-03-30T07:35:19.285Z,7.50
2023-03-30T07:37:50.961Z,9.63
2023-03-30T07:40:19.916Z,8.23
2023-03-30T07:42:48.919Z,11.80
2023-03-30T07:45:17.545Z,14.80
2023-03-30T07:47:45.883Z,10.97
2023-03-30T07:50:14.341Z,7.33
2023-03-30T07:52:42.687Z,5.23
2023-03-30T07:55:12.400Z,7.47
2023-03-30T07:57:40.859Z,7.83
2023-03-30T08:00:14.500Z,9.07
2023-03-30T08:02:43.087Z,6.87
2023-03-30T08:05:11.736Z,6.60
2023-03-30T08:07:40.321Z,8.43
2023-03-30T08:10:11.415Z,4.60
2023-03-30T08:12:39.799Z,5.83
2023-03-30T08:15:09.736Z,15.77
2023-03-30T08:17:38.151Z,20.97
2023-03-30T08:20:10.832Z,12.93
2023-03-30T08:22:39.494Z,10.40
2023-03-30T08:25:09.312Z,12.23
2023-03-30T08:27:39.242Z,12.70
2023-03-30T08:30:13.296Z,9.47
2023-03-30T08:32:41.631Z,9.40
2023-03-30T08:35:11.607Z,12.27
2023-03-30T08:37:40.296Z,5.77
2023-03-30T08:40:12.844Z,6.40
2023-03-30T08:43:08.217Z,8.97
2023-03-30T08:45:42.674Z,8.47
2023-03-30T08:48:18.550Z,10.33
2023-03-30T08:50:55.280Z,6.30
2023-03-30T08:53:23.800Z,8.63
2023-03-30T08:55:57.184Z,6.87
2023-03-30T08:58:40.027Z,7.40
2023-03-30T09:01:18.216Z,6.20
2023-03-30T09:04:02.082Z,10.97
2023-03-30T09:06:45.954Z,9.13
2023-03-30T09:09:17.950Z,10.27
2023-03-30T09:11:47.674Z,10.13
2023-03-30T09:14:27.716Z,9.17
2023-03-30T09:17:04.122Z,10.03
2023-03-30T09:19:37.140Z,8.40
2023-03-30T09:22:07.476Z,12.23
2023-03-30T09:24:36.282Z,8.63
2023-03-30T09:27:14.284Z,9.30
2023-03-30T09:29:49.715Z,8.37
2023-03-30T09:32:31.231Z,9.70
2023-03-30T09:35:07.760Z,10.03
2023-03-30T09:37:37.308Z,11.67
2023-03-30T09:40:26.613Z,9.60
2023-03-30T09:43:05.818Z,8.33
2023-03-30T09:45:37.274Z,6.80
2023-03-30T09:48:08.634Z,10.57
2023-03-30T09:50:41.047Z,27.97
2023-03-30T09:53:22.214Z,18.50
2023-03-30T09:56:01.413Z,15.90
2023-03-30T09:58:32.424Z,17.07
2023-03-30T10:01:08.810Z,16.97
2023-03-30T10:03:37.514Z,13.77
2023-03-30T10:06:09.370Z,12.27
2023-03-30T10:08:44.206Z,10.77
2023-03-30T10:11:13.131Z,13.03
2023-03-30T10:13:44.624Z,12.93
2023-03-30T10:16:29.032Z,12.50
2023-03-30T10:19:02.847Z,9.60
2023-03-30T10:21:33.283Z,14.40
2023-03-30T10:24:08.195Z,11.47
2023-03-30T10:26:39.042Z,8.07
2023-03-30T10:29:11.026Z,10.07
2023-03-30T10:31:46.215Z,8.73
2023-03-30T10:34:20.267Z,11.87
2023-03-30T10:36:51.899Z,8.67
2023-03-30T10:39:35.390Z,8.97
2023-03-30T10:42:07.387Z,8.23
2023-03-30T10:44:41.993Z,13.10
2023-03-30T10:47:36.075Z,14.53
2023-03-30T10:50:12.255Z,13.97
2023-03-30T10:52:59.035Z,11.73
2023-03-30T10:55:35.138Z,18.67
2023-03-30T10:58:21.469Z,8.53
2023-03-30T11:01:02.410Z,11.73
2023-03-30T11:03:33.209Z,10.53
2023-03-30T11:06:08.454Z,9.27
2023-03-30T11:08:40.667Z,7.77
2023-03-30T11:11:14.735Z,11.93
2023-03-30T11:13:48.015Z,9.77
2023-03-30T11:16:22.869Z,13.07
2023-03-30T11:18:57.842Z,14.50
2023-03-30T11:21:33.611Z,11.60
2023-03-30T11:24:08.369Z,13.20
2023-03-30T11:26:42.001Z,13.57
2023-03-30T11:29:29.569Z,15.20
2023-03-30T11:32:14.674Z,11.43
2023-03-30T11:34:57.542Z,14.63
2023-03-30T11:37:34.058Z,8.27
2023-03-30T11:40:16.442Z,12.73
2023-03-30T11:42:44.922Z,13.10
2023-03-30T11:45:29.298Z,13.17
2023-03-30T11:48:15.044Z,9.53
2023-03-30T11:51:04.433Z,9.80
2023-03-30T11:53:39.693Z,15.60
2023-03-30T11:56:11.993Z,14.43
2023-03-30T11:58:45.815Z,13.03
2023-03-30T12:01:33.411Z,9.30
2023-03-30T12:04:09.294Z,12.77
2023-03-30T12:06:42.144Z,10.83
2023-03-30T12:09:25.685Z,10.27
2023-03-30T12:12:04.330Z,13.90
2023-03-30T12:14:49.039Z,12.00
2023-03-30T12:17:36.423Z,12.73
2023-03-30T12:20:15.946Z,10.50
2023-03-30T12:22:53.743Z,11.73
2023-03-30T12:25:30.035Z,11.40
2023-03-30T12:28:04.446Z,10.97
2023-03-30T12:30:48.477Z,9.23
2023-03-30T12:33:20.502Z,11.77
2023-03-30T12:35:58.712Z,10.27
2023-03-30T12:38:38.455Z,10.33
2023-03-30T12:41:18.563Z,7.13
2023-03-30T12:44:39.049Z,9.53
2023-03-30T12:47:36.745Z,13.37
2023-03-30T12:50:24.662Z,8.37
2023-03-30T12:53:20.387Z,10.20
2023-03-30T12:55:55.725Z,8.23
2023-03-30T12:58:59.530Z,8.33
2023-03-30T13:01:51.224Z,7.67
2023-03-30T13:04:24.107Z,7.40
2023-03-30T13:06:55.798Z,8.40
2023-03-30T13:09:36.600Z,8.90
2023-03-30T13:12:36.304Z,8.97
2023-03-30T13:15:31.821Z,7.50
2023-03-30T13:18:02.398Z,10.07
2023-03-30T13:20:34.982Z,6.60
2023-03-30T13:23:26.411Z,10.83
2023-03-30T13:26:07.827Z,8.50
2023-03-30T13:28:56.660Z,8.00
2023-03-30T13:31:45.229Z,4.90
2023-03-30T13:34:31.782Z,5.93
2023-03-30T13:37:08.338Z,9.07
2023-03-30T13:39:42.508Z,6.60
2023-03-30T13:42:34.885Z,7.27
2023-03-30T13:45:19.403Z,6.63
2023-03-30T13:48:06.034Z,7.60
2023-03-30T13:50:36.398Z,8.13
2023-03-30T13:53:11.135Z,6.90
2023-03-30T13:55:43.498Z,5.57
2023-03-30T13:58:17.674Z,6.67
2023-03-30T14:00:51.641Z,4.70
2023-03-30T14:03:37.488Z,6.17
2023-03-30T14:06:09.771Z,5.70
2023-03-30T14:08:41.182Z,6.90
2023-03-30T14:11:19.498Z,5.97
2023-03-30T14:13:53.097Z,5.27
2023-03-30T14:16:26.036Z,6.83
2023-03-30T14:18:56.456Z,8.47
2023-03-30T14:21:25.291Z,7.83
2023-03-30T14:23:55.370Z,6.50
2023-03-30T14:26:26.432Z,8.27
2023-03-30T14:28:57.184Z,6.30
2023-03-30T14:31:27.855Z,6.40
2023-03-30T14:33:56.732Z,5.40
2023-03-30T14:36:25.574Z,5.27
2023-03-30T14:38:57.393Z,3.93
2023-03-30T14:41:28.334Z,5.03
2023-03-30T14:43:59.132Z,5.57
2023-03-30T14:46:37.055Z,3.93
2023-03-30T14:49:06.166Z,7.37
2023-03-30T14:51:40.509Z,8.27
2023-03-30T14:54:11.559Z,4.30
2023-03-30T14:56:41.196Z,17.33
2023-03-30T14:59:12.142Z,5.27
2023-03-30T15:01:44.133Z,7.10
2023-03-30T15:04:16.721Z,5.93
2023-03-30T15:06:47.273Z,5.07
2023-03-30T15:09:19.126Z,5.10
2023-03-30T15:11:52.325Z,5.50
2023-03-30T15:14:25.283Z,4.63
2023-03-30T15:16:57.614Z,6.77
2023-03-30T15:19:31.523Z,4.93
2023-03-30T15:22:04.344Z,9.50
2023-03-30T15:24:37.854Z,5.03
2023-03-30T15:27:11.709Z,4.47
2023-03-30T15:29:41.786Z,5.93
2023-03-30T15:32:17.759Z,6.13
2023-03-30T15:35:08.351Z,5.33
2023-03-30T15:37:37.541Z,5.80
2023-03-30T15:40:28.453Z,4.90
2023-03-30T15:43:19.742Z,5.17
2023-03-30T15:45:52.105Z,8.80
2023-03-30T15:48:27.129Z,5.30
2023-03-30T15:51:03.973Z,6.13
2023-03-30T15:53:41.080Z,6.10
2023-03-30T15:56:14.682Z,6.73
2023-03-30T15:58:44.278Z,5.97
2023-03-30T16:01:16.076Z,6.37
2023-03-30T16:03:56.365Z,7.03
2023-03-30T16:06:25.425Z,5.40
2023-03-30T16:08:53.791Z,5.73
2023-03-30T16:11:23.806Z,6.50
2023-03-30T16:13:55.216Z,6.30
2023-03-30T16:16:23.557Z,7.77
2023-03-30T16:18:53.353Z,4.73
2023-03-30T16:21:24.553Z,5.80
2023-03-30T16:23:53.073Z,5.93
2023-03-30T16:26:21.620Z,6.57
2023-03-30T16:28:53.193Z,5.23
2023-03-30T16:31:25.069Z,4.93
2023-03-30T16:33:55.009Z,6.17
2023-03-30T16:36:25.235Z,3.83
2023-03-30T16:38:53.510Z,4.63
2023-03-30T16:41:24.169Z,5.23
2023-03-30T16:43:52.456Z,13.03
2023-03-30T16:46:22.194Z,6.57
2023-03-30T16:48:50.790Z,7.27
2023-03-30T16:51:20.832Z,6.10
2023-03-30T16:53:49.112Z,8.90
2023-03-30T16:56:19.576Z,5.47
2023-03-30T16:58:48.603Z,6.70
2023-03-30T17:01:18.658Z,10.07
2023-03-30T17:03:47.595Z,7.40
2023-03-30T17:06:17.152Z,5.87
2023-03-30T17:08:46.889Z,7.83
2023-03-30T17:11:15.505Z,6.07
2023-03-30T17:13:46.207Z,4.57
2023-03-30T17:16:16.175Z,4.50
2023-03-30T17:18:44.481Z,7.07
2023-03-30T17:21:16.519Z,5.63
2023-03-30T17:23:48.063Z,8.53
2023-03-30T17:26:17.081Z,3.37
2023-03-30T17:28:45.997Z,6.30
2023-03-30T17:31:17.726Z,1.87
2023-03-30T17:33:46.925Z,2.63
2023-03-30T17:36:20.329Z,5.83
2023-03-30T17:38:51.343Z,2.17
2023-03-30T17:41:21.010Z,1.47
2023-03-30T17:43:49.846Z,4.33
2023-03-30T17:46:20.795Z,2.07
2023-03-30T17:48:51.165Z,2.47
2023-03-30T17:51:19.598Z,4.23
2023-03-30T17:53:49.394Z,12.00
2023-03-30T17:56:17.731Z,2.70
2023-03-30T17:58:46.096Z,4.93
2023-03-30T18:01:16.743Z,6.53
2023-03-30T18:03:45.239Z,5.67
2023-03-30T18:06:13.973Z,4.17
2023-03-30T18:08:43.099Z,30.47
2023-03-30T18:11:12.991Z,7.47
2023-03-30T18:13:41.359Z,8.77
2023-03-30T18:16:13.879Z,4.43
2023-03-30T18:18:42.312Z,4.37
2023-03-30T18:21:12.085Z,3.27
2023-03-30T18:23:40.418Z,4.87
2023-03-30T18:26:12.249Z,8.00
2023-03-30T18:28:43.767Z,7.93
2023-03-30T18:31:12.905Z,9.43
2023-03-30T18:33:41.465Z,7.10
2023-03-30T18:36:13.128Z,6.90
2023-03-30T18:38:42.248Z,5.57
2023-03-30T18:41:12.495Z,5.67
2023-03-30T18:43:42.185Z,5.97
2023-03-30T18:46:14.033Z,6.83
2023-03-30T18:48:42.495Z,7.67
2023-03-30T18:51:12.643Z,5.23
2023-03-30T18:53:41.300Z,6.53
2023-03-30T18:56:13.784Z,8.27
2023-03-30T18:58:43.891Z,7.50
2023-03-30T19:01:15.859Z,9.20
2023-03-30T19:03:45.099Z,13.50
2023-03-30T19:06:16.633Z,8.20
2023-03-30T19:08:44.970Z,6.50
2023-03-30T19:11:16.741Z,4.60
2023-03-30T19:13:47.274Z,3.10
2023-03-30T19:16:18.518Z,7.27
2023-03-30T19:18:49.397Z,2.60
2023-03-30T19:21:19.210Z,3.47
2023-03-30T19:23:54.018Z,4.00
2023-03-30T19:26:23.275Z,5.13
2023-03-30T19:28:53.040Z,4.10
2023-03-30T19:31:21.327Z,2.83
2023-03-30T19:33:49.667Z,3.93
2023-03-30T19:36:17.971Z,3.70
2023-03-30T19:38:46.613Z,7.43
2023-03-30T19:41:14.949Z,3.27
2023-03-30T19:43:43.547Z,5.60
2023-03-30T19:46:13.243Z,2.70
2023-03-30T19:48:41.897Z,3.33
2023-03-30T19:51:10.189Z,6.33
2023-03-30T19:53:38.535Z,4.63
2023-03-30T19:56:11.111Z,5.63
2023-03-30T19:58:39.631Z,5.60
2023-03-30T20:01:09.752Z,4.90
2023-03-30T20:03:39.737Z,5.73
2023-03-30T20:06:11.616Z,3.23
2023-03-30T20:08:40.775Z,4.50
2023-03-30T20:11:10.160Z,6.50
2023-03-30T20:13:38.616Z,7.33
2023-03-30T20:16:07.322Z,4.47
2023-03-30T20:18:35.740Z,4.97
2023-03-30T20:21:06.138Z,4.77
2023-03-30T20:23:34.575Z,5.07
2023-03-30T20:26:04.532Z,6.70
2023-03-30T20:28:33.044Z,5.60
2023-03-30T20:31:02.234Z,6.40
2023-03-30T20:33:33.574Z,5.03
2023-03-30T20:36:03.091Z,7.80
2023-03-30T20:38:33.005Z,5.67
2023-03-30T20:41:05.013Z,4.63
2023-03-30T20:43:38.473Z,7.43
2023-03-30T20:46:15.714Z,7.10
2023-03-30T20:48:45.125Z,4.57
2023-03-30T20:51:15.528Z,8.03
2023-03-30T20:53:45.246Z,6.60
2023-03-30T20:56:13.702Z,9.00
2023-03-30T20:58:42.531Z,9.73
2023-03-30T21:01:17.889Z,6.57
2023-03-30T21:03:49.947Z,5.33
2023-03-30T21:06:19.722Z,5.57
2023-03-30T21:08:49.376Z,6.10
2023-03-30T21:11:17.869Z,5.27
2023-03-30T21:13:46.513Z,6.43
2023-03-30T21:16:15.042Z,6.13
2023-03-30T21:18:43.415Z,5.10
2023-03-30T21:21:11.790Z,4.93
2023-03-30T21:23:41.486Z,9.20
2023-03-30T21:26:11.435Z,7.07
2023-03-30T21:28:41.458Z,7.03
2023-03-30T21:31:14.196Z,5.97
2023-03-30T21:33:42.696Z,5.97
2023-03-30T21:36:12.039Z,4.83
2023-03-30T21:38:40.857Z,5.43
2023-03-30T21:41:13.934Z,4.90
2023-03-30T21:43:45.173Z,4.43
2023-03-30T21:46:16.203Z,5.37
2023-03-30T21:48:46.504Z,3.73
2023-03-30T21:51:17.335Z,5.50
2023-03-30T21:53:49.115Z,6.57
2023-03-30T21:56:22.308Z,12.07
2023-03-30T21:58:51.362Z,6.40
2023-03-30T22:01:20.946Z,6.00
2023-03-30T22:03:49.511Z,5.10
2023-03-30T22:06:18.788Z,5.30
2023-03-30T22:08:47.859Z,5.10
2023-03-30T22:11:20.629Z,4.83
2023-03-30T22:13:50.187Z,5.73
2023-03-30T22:16:22.277Z,7.23
2023-03-30T22:18:51.731Z,4.70
2023-03-30T22:21:24.003Z,4.13
2023-03-30T22:23:53.097Z,5.07
2023-03-30T22:26:26.180Z,4.70
2023-03-30T22:28:54.715Z,3.40
2023-03-30T22:31:23.469Z,4.23
2023-03-30T22:33:51.812Z,6.13
2023-03-30T22:36:22.557Z,4.03
2023-03-30T22:38:52.315Z,6.77
2023-03-30T22:41:24.378Z,5.13
2023-03-30T22:43:53.792Z,6.03
2023-03-30T22:46:22.549Z,3.07
2023-03-30T22:48:51.823Z,4.07
2023-03-30T22:51:23.624Z,6.10
2023-03-30T22:53:52.110Z,4.20
2023-03-30T22:56:24.753Z,5.23
2023-03-30T22:58:53.067Z,4.27
2023-03-30T23:01:21.646Z,3.40
2023-03-30T23:03:50.452Z,5.60
2023-03-30T23:06:19.672Z,5.37
2023-03-30T23:08:48.743Z,3.73
2023-03-30T23:11:17.500Z,4.37
2023-03-30T23:13:47.246Z,3.43
2023-03-30T23:16:16.506Z,4.20
2023-03-30T23:18:44.838Z,3.30
2023-03-30T23:21:14.207Z,4.10
2023-03-30T23:23:42.644Z,8.70
2023-03-30T23:26:16.539Z,4.60
2023-03-30T23:28:46.356Z,3.93
2023-03-30T23:31:17.543Z,3.10
2023-03-30T23:33:46.856Z,3.13
2023-03-30T23:36:19.202Z,4.00
2023-03-30T23:38:48.347Z,2.57
2023-03-30T23:41:19.118Z,2.77
2023-03-30T23:43:49.447Z,5.57
2023-03-30T23:46:20.930Z,7.97
2023-03-30T23:48:49.278Z,3.80
2023-03-30T23:51:17.603Z,4.53
2023-03-30T23:53:47.230Z,4.10
2023-03-30T23:56:18.798Z,6.03
2023-03-30T23:58:48.477Z,5.03
